Time;durP1;ratioP1;P1;durP2;ratioP2;P2;SDS_P1;SDS_P2;PMS_P1;PMS_P2;Temp;Humidity;BMP_temperature;BMP_pressure;BME280_temperature;BME280_humidity;BME280_pressure;Samples;Min_cycle;Max_cycle;Signal;HPM_P1;HPM_P2
2023/08/09 00:02:09;;;;;;;8.85;2.90;;;;;;;;;;5102981;28;20039;-72
2023/08/09 00:04:35;;;;;;;8.65;3.15;;;;;;;;;;5102459;28;20103;-73
2023/08/09 00:07:01;;;;;;;5.68;3.20;;;;;;;;;;5101778;28;20123;-72
2023/08/09 00:09:27;;;;;;;3.88;2.65;;;;;;;;;;5076273;28;20016;-71
2023/08/09 00:11:53;;;;;;;6.80;2.72;;;;;;;;;;5108714;28;20386;-72
2023/08/09 00:14:19;;;;;;;4.43;2.45;;;;;;;;;;5106291;28;20455;-73
2023/08/09 00:16:45;;;;;;;4.43;2.70;;;;;;;;;;5104698;28;20534;-72
2023/08/09 00:19:11;;;;;;;4.78;3.10;;;;;;;;;;5102394;28;20047;-72
2023/08/09 00:21:37;;;;;;;5.10;3.28;;;;;;;;;;5102845;28;20395;-72
2023/08/09 00:24:04;;;;;;;7.32;2.90;;;;;;;;;;5084098;28;20115;-73
2023/08/09 00:26:30;;;;;;;5.13;2.40;;;;;;;;;;5104915;28;20035;-73
2023/08/09 00:28:56;;;;;;;5.20;2.63;;;;;;;;;;5094216;28;20028;-73
2023/08/09 00:31:23;;;;;;;7.10;4.03;;;;;;;;;;5105114;28;20433;-73
2023/08/09 00:33:49;;;;;;;5.13;2.90;;;;;;;;;;5114849;28;20499;-72
2023/08/09 00:36:18;;;;;;;6.38;2.00;;;;;;;;;;5106144;28;20031;-73
2023/08/09 00:38:44;;;;;;;5.03;2.63;;;;;;;;;;5104014;28;20051;-72
2023/08/09 00:41:10;;;;;;;4.80;2.50;;;;;;;;;;5107074;28;20111;-72
2023/08/09 00:43:36;;;;;;;7.10;2.97;;;;;;;;;;5103392;28;20035;-72
2023/08/09 00:46:03;;;;;;;4.90;2.22;;;;;;;;;;5105029;28;20448;-72
2023/08/09 00:48:29;;;;;;;6.38;2.47;;;;;;;;;;5094078;28;20023;-73
2023/08/09 00:50:55;;;;;;;4.20;2.13;;;;;;;;;;5105231;28;20035;-73
2023/08/09 00:53:21;;;;;;;4.60;2.47;;;;;;;;;;5106754;28;20028;-73
2023/08/09 00:55:47;;;;;;;5.35;2.67;;;;;;;;;;5102622;28;20028;-73
2023/08/09 00:58:14;;;;;;;4.18;2.10;;;;;;;;;;5103170;28;20051;-74
2023/08/09 01:00:41;;;;;;;4.32;2.30;;;;;;;;;;5103647;28;20027;-72
2023/08/09 01:03:07;;;;;;;4.65;2.22;;;;;;;;;;5105190;28;20111;-72
2023/08/09 01:05:37;;;;;;;3.33;2.15;;;;;;;;;;5085970;28;20105;-73
2023/08/09 01:08:20;;;;;;;6.38;2.20;;;;;;;;;;5099565;28;20032;-74
2023/08/09 01:11:12;;;;;;;2.97;2.08;;;;;;;;;;5105948;28;20038;-71
2023/08/09 01:13:40;;;;;;;3.50;2.05;;;;;;;;;;5098199;28;20122;-72
2023/08/09 01:16:07;;;;;;;5.97;2.53;;;;;;;;;;5105108;28;20439;-72
2023/08/09 01:18:33;;;;;;;2.28;1.73;;;;;;;;;;5104375;28;20027;-71
2023/08/09 01:21:00;;;;;;;5.40;2.22;;;;;;;;;;5101599;28;20035;-73
2023/08/09 01:23:31;;;;;;;5.15;2.65;;;;;;;;;;5108891;28;20401;-72
2023/08/09 01:25:57;;;;;;;4.32;2.42;;;;;;;;;;5101718;28;20122;-73
2023/08/09 01:28:23;;;;;;;3.90;1.95;;;;;;;;;;5099154;28;20506;-72
2023/08/09 01:30:49;;;;;;;4.32;2.00;;;;;;;;;;5107723;28;20099;-72
2023/08/09 01:33:15;;;;;;;4.57;2.38;;;;;;;;;;5113148;28;20023;-73
2023/08/09 01:35:44;;;;;;;7.10;2.97;;;;;;;;;;5104227;28;20061;-72
2023/08/09 01:38:21;;;;;;;4.00;2.42;;;;;;;;;;5100590;28;20038;-72
2023/08/09 01:40:48;;;;;;;5.00;2.40;;;;;;;;;;5102805;28;20508;-72
2023/08/09 01:43:14;;;;;;;6.72;2.38;;;;;;;;;;5104507;28;20402;-73
2023/08/09 01:45:40;;;;;;;4.18;2.20;;;;;;;;;;5103677;28;20102;-73
2023/08/09 01:48:07;;;;;;;4.80;2.10;;;;;;;;;;5100266;28;20504;-73
2023/08/09 01:50:34;;;;;;;7.88;2.00;;;;;;;;;;5074456;28;20049;-72
2023/08/09 01:53:00;;;;;;;4.43;2.17;;;;;;;;;;5104443;28;20024;-73
2023/08/09 01:55:27;;;;;;;3.55;1.88;;;;;;;;;;5079140;28;20028;-72
2023/08/09 01:57:53;;;;;;;4.70;2.30;;;;;;;;;;5102435;28;20024;-71
2023/08/09 02:00:20;;;;;;;3.92;1.80;;;;;;;;;;5079751;28;20024;-72
2023/08/09 02:02:46;;;;;;;4.18;1.88;;;;;;;;;;5102141;28;20032;-73
2023/08/09 02:05:12;;;;;;;4.20;2.00;;;;;;;;;;5104262;28;20032;-72
2023/08/09 02:07:39;;;;;;;3.65;2.05;;;;;;;;;;5119434;22;20120;-78
2023/08/09 02:10:06;;;;;;;5.72;2.58;;;;;;;;;;5097269;28;20124;-77
2023/08/09 02:12:32;;;;;;;3.30;2.38;;;;;;;;;;5111839;28;20028;-77
2023/08/09 02:14:58;;;;;;;3.38;1.90;;;;;;;;;;5113125;28;20016;-77
2023/08/09 02:17:24;;;;;;;5.35;2.10;;;;;;;;;;5114022;28;20079;-78
2023/08/09 02:19:50;;;;;;;4.40;2.10;;;;;;;;;;5090796;28;20571;-77
2023/08/09 02:22:19;;;;;;;3.38;2.13;;;;;;;;;;5120902;28;20015;-78
2023/08/09 02:24:46;;;;;;;4.50;2.20;;;;;;;;;;5120826;28;20058;-77
2023/08/09 02:27:12;;;;;;;4.10;2.25;;;;;;;;;;5094842;28;20016;-77
2023/08/09 02:29:38;;;;;;;6.50;2.22;;;;;;;;;;5119983;28;20015;-78
2023/08/09 02:32:05;;;;;;;5.80;2.38;;;;;;;;;;5113532;28;20035;-77
2023/08/09 02:34:31;;;;;;;4.80;2.42;;;;;;;;;;5121677;28;20049;-77
2023/08/09 02:36:57;;;;;;;3.85;1.90;;;;;;;;;;5120212;28;20098;-78
2023/08/09 02:39:24;;;;;;;4.43;2.10;;;;;;;;;;5098912;28;20074;-78
2023/08/09 02:41:50;;;;;;;5.22;2.00;;;;;;;;;;5106484;28;20051;-78
2023/08/09 02:44:16;;;;;;;4.68;2.05;;;;;;;;;;5111982;28;20031;-79
2023/08/09 02:46:42;;;;;;;5.32;2.25;;;;;;;;;;5111659;28;20023;-78
2023/08/09 02:49:08;;;;;;;2.42;1.58;;;;;;;;;;5111429;28;20020;-79
2023/08/09 02:51:34;;;;;;;3.58;2.03;;;;;;;;;;5108327;28;20027;-77
2023/08/09 02:54:02;;;;;;;4.65;2.33;;;;;;;;;;5081869;28;20445;-78
2023/08/09 02:56:28;;;;;;;3.42;2.03;;;;;;;;;;5107431;28;20481;-77
2023/08/09 02:58:54;;;;;;;14.05;2.35;;;;;;;;;;5111716;28;20047;-78
2023/08/09 03:01:21;;;;;;;5.25;2.10;;;;;;;;;;5112033;28;20020;-77
2023/08/09 03:03:48;;;;;;;8.52;2.42;;;;;;;;;;5092036;28;20401;-76
2023/08/09 03:06:14;;;;;;;6.63;4.47;;;;;;;;;;5081954;28;20024;-77
2023/08/09 03:08:40;;;;;;;2.05;1.58;;;;;;;;;;5110558;28;20517;-77
2023/08/09 03:11:06;;;;;;;3.83;1.90;;;;;;;;;;5091156;28;20035;-77
2023/08/09 03:13:32;;;;;;;2.55;1.75;;;;;;;;;;5117613;28;20027;-77
2023/08/09 03:15:59;;;;;;;4.97;2.17;;;;;;;;;;5084131;28;20019;-78
2023/08/09 03:18:25;;;;;;;7.25;2.60;;;;;;;;;;5118149;28;20072;-77
2023/08/09 03:20:52;;;;;;;3.60;1.95;;;;;;;;;;5109790;28;20098;-78
2023/08/09 03:23:18;;;;;;;7.20;2.50;;;;;;;;;;5112110;28;20431;-78
2023/08/09 03:25:44;;;;;;;4.72;2.22;;;;;;;;;;5111152;28;20049;-78
2023/08/09 03:28:11;;;;;;;7.20;2.58;;;;;;;;;;5092551;28;20414;-78
2023/08/09 03:30:37;;;;;;;6.22;2.35;;;;;;;;;;5103330;28;20527;-79
2023/08/09 03:33:04;;;;;;;4.68;2.28;;;;;;;;;;5094140;28;20048;-77
2023/08/09 03:35:30;;;;;;;4.15;2.33;;;;;;;;;;5075672;28;20024;-79
2023/08/09 03:37:56;;;;;;;4.68;2.00;;;;;;;;;;5090676;28;20020;-78
2023/08/09 03:40:38;;;;;;;9.00;2.83;;;;;;;;;;5097568;28;20016;-78
2023/08/09 03:43:05;;;;;;;3.78;2.15;;;;;;;;;;5083546;28;20499;-78
2023/08/09 03:45:31;;;;;;;4.15;2.15;;;;;;;;;;5098360;28;20030;-78
2023/08/09 03:47:57;;;;;;;6.88;2.85;;;;;;;;;;5102341;28;20024;-78
2023/08/09 03:50:23;;;;;;;4.72;2.60;;;;;;;;;;5101572;28;20455;-78
2023/08/09 03:52:49;;;;;;;7.78;2.13;;;;;;;;;;5108643;28;20476;-78
2023/08/09 03:55:16;;;;;;;2.88;2.42;;;;;;;;;;5110955;28;20024;-78
2023/08/09 03:57:42;;;;;;;3.67;1.92;;;;;;;;;;5110218;28;20055;-78
2023/08/09 04:00:09;;;;;;;2.35;1.88;;;;;;;;;;5111003;28;20031;-77
2023/08/09 04:02:35;;;;;;;4.00;2.20;;;;;;;;;;5092257;28;20027;-77
2023/08/09 04:05:01;;;;;;;8.73;2.25;;;;;;;;;;5100562;28;20539;-78
2023/08/09 04:07:27;;;;;;;3.70;2.55;;;;;;;;;;5085347;28;20031;-78
2023/08/09 04:09:53;;;;;;;5.85;2.78;;;;;;;;;;5110543;28;20108;-78
2023/08/09 04:12:19;;;;;;;3.72;2.58;;;;;;;;;;5092343;28;20027;-78
2023/08/09 04:14:45;;;;;;;6.85;2.88;;;;;;;;;;5104172;28;20032;-77
2023/08/09 04:17:11;;;;;;;4.53;3.00;;;;;;;;;;5109892;28;20044;-77
2023/08/09 04:19:37;;;;;;;3.95;3.03;;;;;;;;;;5110929;28;20103;-76
2023/08/09 04:22:04;;;;;;;5.18;2.95;;;;;;;;;;5089848;28;20547;-78
2023/08/09 04:24:30;;;;;;;6.78;3.90;;;;;;;;;;5110440;28;20024;-78
2023/08/09 04:26:56;;;;;;;8.18;3.53;;;;;;;;;;5091442;28;20027;-75
2023/08/09 04:29:22;;;;;;;7.47;3.85;;;;;;;;;;5092283;28;20055;-77
2023/08/09 04:31:48;;;;;;;14.60;4.50;;;;;;;;;;5086287;28;20059;-77
2023/08/09 04:34:14;;;;;;;8.23;4.43;;;;;;;;;;5110814;28;20052;-75
2023/08/09 04:36:40;;;;;;;6.55;4.15;;;;;;;;;;5092471;28;20035;-74
2023/08/09 04:39:09;;;;;;;10.10;4.65;;;;;;;;;;5111299;28;20502;-77
2023/08/09 04:41:35;;;;;;;6.97;4.50;;;;;;;;;;5092089;28;20019;-76
2023/08/09 04:44:01;;;;;;;12.63;5.40;;;;;;;;;;5114236;28;20031;-75
2023/08/09 04:46:27;;;;;;;21.05;6.63;;;;;;;;;;5114075;28;20410;-76
2023/08/09 04:48:53;;;;;;;13.32;6.68;;;;;;;;;;5114146;28;20027;-73
2023/08/09 04:51:19;;;;;;;18.83;7.05;;;;;;;;;;5112751;28;20024;-74
2023/08/09 04:53:45;;;;;;;25.50;9.63;;;;;;;;;;5093533;28;20054;-74
2023/08/09 04:56:11;;;;;;;30.30;10.63;;;;;;;;;;5114013;28;20031;-76
2023/08/09 04:58:38;;;;;;;25.27;10.98;;;;;;;;;;5109956;28;20024;-73
2023/08/09 05:01:04;;;;;;;19.95;12.95;;;;;;;;;;5113787;28;20031;-74
2023/08/09 05:03:30;;;;;;;22.23;12.30;;;;;;;;;;5113871;28;20027;-74
2023/08/09 05:05:57;;;;;;;35.55;13.48;;;;;;;;;;5095144;28;20028;-74
2023/08/09 05:08:23;;;;;;;22.90;13.45;;;;;;;;;;5112450;28;20035;-73
2023/08/09 05:10:49;;;;;;;49.95;17.33;;;;;;;;;;5113153;28;20399;-73
2023/08/09 05:13:15;;;;;;;29.45;17.08;;;;;;;;;;5112967;28;20100;-74
2023/08/09 05:15:41;;;;;;;32.30;17.67;;;;;;;;;;5094953;28;20479;-72
2023/08/09 05:18:07;;;;;;;28.95;16.08;;;;;;;;;;5112448;28;20073;-74
2023/08/09 05:20:33;;;;;;;27.23;14.00;;;;;;;;;;5113237;28;20023;-73
2023/08/09 05:22:59;;;;;;;33.33;15.88;;;;;;;;;;5108815;28;20398;-74
2023/08/09 05:25:25;;;;;;;28.38;14.30;;;;;;;;;;5113644;28;20031;-74
2023/08/09 05:27:51;;;;;;;32.65;15.38;;;;;;;;;;5112458;28;20428;-74
2023/08/09 05:30:20;;;;;;;21.42;12.57;;;;;;;;;;5110263;28;20028;-74
2023/08/09 05:32:47;;;;;;;36.53;15.45;;;;;;;;;;5110476;28;20500;-72
2023/08/09 05:35:13;;;;;;;37.90;15.10;;;;;;;;;;5113170;28;20030;-74
2023/08/09 05:37:39;;;;;;;19.45;11.75;;;;;;;;;;5112394;28;20499;-73
2023/08/09 05:40:08;;;;;;;19.05;12.13;;;;;;;;;;5113396;28;20046;-73
2023/08/09 05:42:34;;;;;;;26.73;14.90;;;;;;;;;;5114917;28;20028;-73
2023/08/09 05:45:00;;;;;;;17.65;11.95;;;;;;;;;;5114656;28;20019;-74
2023/08/09 05:47:26;;;;;;;25.10;12.57;;;;;;;;;;5106340;28;20031;-74
2023/08/09 05:49:52;;;;;;;27.98;14.75;;;;;;;;;;5111906;28;20016;-75
2023/08/09 05:52:18;;;;;;;28.58;14.30;;;;;;;;;;5114512;28;20020;-74
2023/08/09 05:54:44;;;;;;;31.73;14.52;;;;;;;;;;5111193;28;20024;-74
2023/08/09 05:57:11;;;;;;;35.15;15.10;;;;;;;;;;5112620;28;20544;-74
2023/08/09 05:59:37;;;;;;;24.55;13.50;;;;;;;;;;5112741;28;20096;-74
2023/08/09 06:02:05;;;;;;;27.10;13.82;;;;;;;;;;5112520;28;20475;-74
2023/08/09 06:04:31;;;;;;;29.83;16.42;;;;;;;;;;5112650;28;20031;-74
2023/08/09 06:06:57;;;;;;;47.80;19.95;;;;;;;;;;5093604;28;20035;-74
2023/08/09 06:09:36;;;;;;;18.60;11.63;;;;;;;;;;5110423;28;20072;-76
2023/08/09 06:12:04;;;;;;;34.33;18.42;;;;;;;;;;5073112;28;20024;-75
2023/08/09 06:14:30;;;;;;;34.38;16.83;;;;;;;;;;5099810;28;20023;-74
2023/08/09 06:16:57;;;;;;;28.92;15.93;;;;;;;;;;5104681;28;20023;-73
2023/08/09 06:19:23;;;;;;;53.70;18.95;;;;;;;;;;5092355;28;20102;-75
2023/08/09 06:21:49;;;;;;;29.30;15.55;;;;;;;;;;5109906;28;20016;-74
2023/08/09 06:24:15;;;;;;;33.67;17.45;;;;;;;;;;5109644;28;20023;-75
2023/08/09 06:26:41;;;;;;;23.35;13.50;;;;;;;;;;5111174;28;20118;-74
2023/08/09 06:29:09;;;;;;;33.22;15.68;;;;;;;;;;5092547;28;20058;-74
2023/08/09 06:31:35;;;;;;;17.77;11.38;;;;;;;;;;5105988;28;20107;-73
2023/08/09 06:34:01;;;;;;;18.17;11.15;;;;;;;;;;5111307;28;20471;-75
2023/08/09 06:36:27;;;;;;;16.77;10.02;;;;;;;;;;5111787;28;20016;-74
2023/08/09 06:38:53;;;;;;;15.90;9.80;;;;;;;;;;5111015;28;20039;-75
2023/08/09 06:41:19;;;;;;;22.95;12.38;;;;;;;;;;5111894;28;20414;-73
2023/08/09 06:43:45;;;;;;;22.33;12.82;;;;;;;;;;5093425;28;20037;-73
2023/08/09 06:46:11;;;;;;;21.98;12.18;;;;;;;;;;5111811;28;20031;-73
2023/08/09 06:48:37;;;;;;;22.58;13.35;;;;;;;;;;5092857;28;20072;-73
2023/08/09 06:51:03;;;;;;;23.65;13.88;;;;;;;;;;5111783;28;20069;-74
2023/08/09 06:53:29;;;;;;;23.23;12.68;;;;;;;;;;5110107;28;20035;-73
2023/08/09 06:55:55;;;;;;;13.43;9.82;;;;;;;;;;5111926;28;20024;-74
2023/08/09 06:58:21;;;;;;;25.83;14.55;;;;;;;;;;5110978;28;20523;-74
2023/08/09 07:00:47;;;;;;;19.88;12.02;;;;;;;;;;5111406;28;20482;-73
2023/08/09 07:03:14;;;;;;;17.83;10.52;;;;;;;;;;5111483;28;20487;-74
2023/08/09 07:05:41;;;;;;;7.75;6.95;;;;;;;;;;5111377;28;20486;-74
2023/08/09 07:08:07;;;;;;;12.50;8.52;;;;;;;;;;5106559;28;20032;-74
2023/08/09 07:10:33;;;;;;;12.13;10.10;;;;;;;;;;5107022;28;20398;-73
2023/08/09 07:12:59;;;;;;;13.00;9.02;;;;;;;;;;5110774;28;20026;-74
2023/08/09 07:15:25;;;;;;;8.95;6.90;;;;;;;;;;5092846;28;20028;-74
2023/08/09 07:17:52;;;;;;;10.63;7.35;;;;;;;;;;5102286;28;20099;-74
2023/08/09 07:20:18;;;;;;;6.63;5.80;;;;;;;;;;5111120;28;20028;-74
2023/08/09 07:22:45;;;;;;;8.32;5.90;;;;;;;;;;5083723;28;20493;-73
2023/08/09 07:25:13;;;;;;;7.90;5.63;;;;;;;;;;5090327;28;20084;-74
2023/08/09 07:27:43;;;;;;;5.32;4.45;;;;;;;;;;5110147;28;20022;-73
2023/08/09 07:30:10;;;;;;;5.57;5.07;;;;;;;;;;5109305;28;20024;-73
2023/08/09 07:32:40;;;;;;;4.25;3.70;;;;;;;;;;5107431;28;20377;-72
2023/08/09 07:35:07;;;;;;;3.75;2.63;;;;;;;;;;5095099;28;20016;-75
2023/08/09 07:37:37;;;;;;;3.92;2.42;;;;;;;;;;5109458;28;20023;-75
2023/08/09 07:40:04;;;;;;;2.43;1.97;;;;;;;;;;5109618;28;20111;-74
2023/08/09 07:42:30;;;;;;;2.17;1.92;;;;;;;;;;5095518;28;20024;-68
2023/08/09 07:44:56;;;;;;;2.47;1.80;;;;;;;;;;5108197;28;20024;-69
2023/08/09 07:47:22;;;;;;;3.53;2.03;;;;;;;;;;5108258;28;20023;-68
2023/08/09 07:49:48;;;;;;;2.78;2.20;;;;;;;;;;5104804;28;20024;-70
2023/08/09 07:52:14;;;;;;;2.13;1.52;;;;;;;;;;5087389;28;20168;-67
2023/08/09 07:54:40;;;;;;;1.52;1.05;;;;;;;;;;5108398;28;20024;-66
2023/08/09 07:57:06;;;;;;;5.85;1.17;;;;;;;;;;5099008;28;20016;-67
2023/08/09 07:59:32;;;;;;;2.75;1.00;;;;;;;;;;5077048;28;20032;-68
2023/08/09 08:01:58;;;;;;;1.35;0.80;;;;;;;;;;5084905;28;20066;-68
2023/08/09 08:04:24;;;;;;;1.83;0.77;;;;;;;;;;5104767;28;20028;-69
2023/08/09 08:06:50;;;;;;;2.90;0.95;;;;;;;;;;5089720;28;20050;-69
2023/08/09 08:09:18;;;;;;;0.90;0.85;;;;;;;;;;5087901;28;20097;-67
2023/08/09 08:11:44;;;;;;;1.33;1.10;;;;;;;;;;5104566;28;20026;-67
2023/08/09 08:14:11;;;;;;;1.75;1.40;;;;;;;;;;5100144;28;20487;-67
2023/08/09 08:16:37;;;;;;;1.52;1.35;;;;;;;;;;5109177;28;20023;-68
2023/08/09 08:19:03;;;;;;;2.65;1.60;;;;;;;;;;5112581;28;20082;-69
2023/08/09 08:21:30;;;;;;;1.60;1.08;;;;;;;;;;5098467;28;20028;-70
2023/08/09 08:24:00;;;;;;;1.65;1.38;;;;;;;;;;5114880;28;20031;-69
2023/08/09 08:26:26;;;;;;;1.70;1.33;;;;;;;;;;5117879;28;20028;-68
2023/08/09 08:28:52;;;;;;;1.20;1.10;;;;;;;;;;5116261;28;20024;-70
2023/08/09 08:31:20;;;;;;;1.05;1.02;;;;;;;;;;5107168;28;20042;-70
2023/08/09 08:33:51;;;;;;;3.45;1.58;;;;;;;;;;5108216;28;20043;-68
2023/08/09 08:36:17;;;;;;;1.67;1.58;;;;;;;;;;5103151;28;20036;-70
2023/08/09 08:38:43;;;;;;;1.58;1.48;;;;;;;;;;5105947;28;20055;-70
2023/08/09 08:41:10;;;;;;;1.60;1.50;;;;;;;;;;5093423;28;20012;-71
2023/08/09 08:43:36;;;;;;;1.38;1.10;;;;;;;;;;5094258;28;20142;-76
2023/08/09 08:46:04;;;;;;;1.45;1.10;;;;;;;;;;5102691;28;20028;-75
2023/08/09 08:48:31;;;;;;;3.85;1.00;;;;;;;;;;5080948;28;20034;-75
2023/08/09 08:50:57;;;;;;;2.08;1.27;;;;;;;;;;5104179;28;20039;-75
2023/08/09 08:53:23;;;;;;;2.17;1.33;;;;;;;;;;5088947;28;20028;-75
2023/08/09 08:55:51;;;;;;;1.00;0.90;;;;;;;;;;5089574;28;20048;-77
2023/08/09 08:58:17;;;;;;;2.65;1.70;;;;;;;;;;5071463;28;20020;-72
2023/08/09 09:00:43;;;;;;;2.90;1.90;;;;;;;;;;5084215;28;20016;-72
2023/08/09 09:03:09;;;;;;;21.30;12.57;;;;;;;;;;5094727;28;20471;-74
2023/08/09 09:05:35;;;;;;;9.15;6.38;;;;;;;;;;5093130;28;20031;-69
2023/08/09 09:08:01;;;;;;;5.20;2.90;;;;;;;;;;5104147;28;20031;-68
2023/08/09 09:10:27;;;;;;;4.25;3.30;;;;;;;;;;5112936;28;20027;-68
2023/08/09 09:12:55;;;;;;;98.47;60.85;;;;;;;;;;5113372;28;20110;-69
2023/08/09 09:15:22;;;;;;;12.43;8.80;;;;;;;;;;5104246;28;20024;-70
2023/08/09 09:17:49;;;;;;;3.10;2.17;;;;;;;;;;5093025;28;20123;-70
2023/08/09 09:20:23;;;;;;;34.13;22.80;;;;;;;;;;5097948;28;20100;-68
2023/08/09 09:22:49;;;;;;;4.43;2.95;;;;;;;;;;5106195;28;20393;-70
2023/08/09 09:25:17;;;;;;;18.02;11.35;;;;;;;;;;5101444;28;20031;-71
2023/08/09 09:27:45;;;;;;;44.88;27.40;;;;;;;;;;5109738;28;20106;-70
2023/08/09 09:30:14;;;;;;;7.82;5.60;;;;;;;;;;5111393;28;20027;-70
2023/08/09 09:32:56;;;;;;;16.75;10.07;;;;;;;;;;5109869;28;20469;-70
2023/08/09 09:35:25;;;;;;;86.53;59.47;;;;;;;;;;5113066;28;20024;-70
2023/08/09 09:37:52;;;;;;;22.05;14.52;;;;;;;;;;5111317;28;20026;-71
2023/08/09 09:40:36;;;;;;;26.63;18.25;;;;;;;;;;5077325;28;20050;-71
2023/08/09 09:43:07;;;;;;;7.00;4.47;;;;;;;;;;5096932;28;20095;-71
2023/08/09 09:45:33;;;;;;;30.90;21.30;;;;;;;;;;5099682;28;20027;-71
2023/08/09 09:49:08;;;;;;;48.33;32.08;;;;;;;;;;5087744;28;20557;-71
2023/08/09 09:51:35;;;;;;;47.45;32.65;;;;;;;;;;5087941;28;20052;-70
2023/08/09 09:54:01;;;;;;;6.95;3.95;;;;;;;;;;5088517;28;20058;-70
2023/08/09 09:56:27;;;;;;;40.40;20.60;;;;;;;;;;5087666;28;20025;-69
2023/08/09 09:58:53;;;;;;;13.77;8.50;;;;;;;;;;5068621;28;20082;-69
2023/08/09 10:01:23;;;;;;;40.00;28.40;;;;;;;;;;5068121;28;20370;-70
2023/08/09 10:03:54;;;;;;;2.05;1.67;;;;;;;;;;5068179;28;20059;-71
2023/08/09 10:06:21;;;;;;;5.10;2.65;;;;;;;;;;5068383;28;20032;-71
2023/08/09 10:08:49;;;;;;;20.00;13.68;;;;;;;;;;5075021;28;20032;-69
2023/08/09 10:11:15;;;;;;;6.43;3.63;;;;;;;;;;5072028;28;20476;-70
2023/08/09 10:13:41;;;;;;;7.97;4.05;;;;;;;;;;5067636;28;20013;-71
2023/08/09 10:16:10;;;;;;;5.45;2.63;;;;;;;;;;5067592;28;20392;-70
2023/08/09 10:18:39;;;;;;;8.32;5.07;;;;;;;;;;5066831;28;20017;-71
2023/08/09 10:21:06;;;;;;;15.10;10.00;;;;;;;;;;5067768;28;20020;-71
2023/08/09 10:23:32;;;;;;;6.63;2.78;;;;;;;;;;5071764;28;20103;-72
2023/08/09 10:25:58;;;;;;;4.05;1.92;;;;;;;;;;5081428;28;20032;-70
2023/08/09 10:28:45;;;;;;;20.95;9.70;;;;;;;;;;5080739;28;20028;-71
2023/08/09 10:31:14;;;;;;;8.80;5.13;;;;;;;;;;5076367;28;20111;-70
2023/08/09 10:33:59;;;;;;;5.65;3.58;;;;;;;;;;5078133;28;20030;-69
2023/08/09 10:36:32;;;;;;;3.60;2.25;;;;;;;;;;5071593;28;20028;-69
2023/08/09 10:38:58;;;;;;;2.60;1.52;;;;;;;;;;5070598;28;20487;-74
2023/08/09 10:41:27;;;;;;;7.50;1.80;;;;;;;;;;5070791;28;20051;-73
2023/08/09 10:44:03;;;;;;;4.70;1.10;;;;;;;;;;5066041;28;20508;-73
2023/08/09 10:46:32;;;;;;;2.35;1.35;;;;;;;;;;5069677;28;20415;-75
2023/08/09 10:49:03;;;;;;;2.55;1.35;;;;;;;;;;5091990;28;20399;-74
2023/08/09 10:51:29;;;;;;;2.65;1.45;;;;;;;;;;5087230;28;20229;-75
2023/08/09 10:54:03;;;;;;;4.25;1.40;;;;;;;;;;5091751;28;20023;-75
2023/08/09 10:56:32;;;;;;;1.42;1.10;;;;;;;;;;5087662;28;20103;-73
2023/08/09 10:59:05;;;;;;;2.03;0.98;;;;;;;;;;5082589;28;20028;-73
2023/08/09 11:01:38;;;;;;;2.95;1.25;;;;;;;;;;5074476;28;20107;-74
2023/08/09 11:04:12;;;;;;;2.67;0.90;;;;;;;;;;5082102;28;20051;-75
2023/08/09 11:06:39;;;;;;;1.40;1.05;;;;;;;;;;5080451;28;20483;-74
2023/08/09 11:09:12;;;;;;;2.50;1.20;;;;;;;;;;5091813;28;20154;-75
2023/08/09 11:11:40;;;;;;;2.78;1.13;;;;;;;;;;5081688;28;20037;-78
2023/08/09 11:14:06;;;;;;;4.63;1.58;;;;;;;;;;5084342;28;20062;-76
2023/08/09 11:16:32;;;;;;;3.05;1.20;;;;;;;;;;5079288;28;20510;-75
2023/08/09 11:19:09;;;;;;;2.50;1.17;;;;;;;;;;5079134;28;20078;-75
2023/08/09 11:21:40;;;;;;;4.38;1.48;;;;;;;;;;5091631;28;20024;-74
2023/08/09 11:24:07;;;;;;;3.63;1.17;;;;;;;;;;5078523;28;20736;-77
2023/08/09 11:26:35;;;;;;;4.35;1.58;;;;;;;;;;5081885;28;20021;-74
2023/08/09 11:29:01;;;;;;;1.80;0.90;;;;;;;;;;5074659;28;20024;-75
2023/08/09 11:31:27;;;;;;;1.73;0.90;;;;;;;;;;5086659;28;20108;-76
2023/08/09 11:34:03;;;;;;;1.52;0.80;;;;;;;;;;5073936;28;20091;-76
2023/08/09 11:36:30;;;;;;;3.97;1.58;;;;;;;;;;5078334;28;20024;-77
2023/08/09 11:38:56;;;;;;;1.45;1.20;;;;;;;;;;5080601;28;20024;-76
2023/08/09 11:41:23;;;;;;;2.78;1.15;;;;;;;;;;5087089;28;20020;-75
2023/08/09 11:43:49;;;;;;;2.70;0.90;;;;;;;;;;5090025;28;20027;-74
2023/08/09 11:46:20;;;;;;;1.70;0.80;;;;;;;;;;5083980;28;20031;-75
2023/08/09 11:48:46;;;;;;;5.03;1.00;;;;;;;;;;5083220;28;20063;-75
2023/08/09 11:51:15;;;;;;;4.82;1.13;;;;;;;;;;5079644;28;20012;-76
2023/08/09 11:53:42;;;;;;;2.15;1.05;;;;;;;;;;5101396;28;20016;-75
2023/08/09 11:56:12;;;;;;;2.90;1.02;;;;;;;;;;5092453;28;20438;-75
2023/08/09 11:58:39;;;;;;;2.45;0.98;;;;;;;;;;5093962;28;20043;-75
2023/08/09 12:01:13;;;;;;;1.95;1.02;;;;;;;;;;5082103;28;20475;-75
2023/08/09 12:03:40;;;;;;;1.58;0.90;;;;;;;;;;5093770;28;20144;-75
2023/08/09 12:06:06;;;;;;;2.25;0.85;;;;;;;;;;5079825;28;20550;-74
2023/08/09 12:08:35;;;;;;;1.85;0.98;;;;;;;;;;5075037;28;20062;-76
2023/08/09 12:11:01;;;;;;;2.75;0.85;;;;;;;;;;5084639;28;20054;-76
2023/08/09 12:13:27;;;;;;;1.38;0.73;;;;;;;;;;5077424;28;20070;-71
2023/08/09 12:15:54;;;;;;;1.88;0.88;;;;;;;;;;5095968;28;20020;-72
2023/08/09 12:18:20;;;;;;;1.67;0.70;;;;;;;;;;5089253;28;20089;-76
2023/08/09 12:20:46;;;;;;;2.15;0.60;;;;;;;;;;5087563;28;20016;-73
2023/08/09 12:23:12;;;;;;;1.45;0.82;;;;;;;;;;5092583;28;20029;-75
2023/08/09 12:25:38;;;;;;;2.17;0.90;;;;;;;;;;5094608;28;20475;-73
2023/08/09 12:28:04;;;;;;;3.17;0.85;;;;;;;;;;5070345;28;20082;-76
2023/08/09 12:30:31;;;;;;;2.22;0.73;;;;;;;;;;5071273;28;20016;-72
2023/08/09 12:32:57;;;;;;;1.75;0.82;;;;;;;;;;5071582;28;20507;-73
2023/08/09 12:35:23;;;;;;;0.88;0.50;;;;;;;;;;5097489;28;20085;-74
2023/08/09 12:37:49;;;;;;;2.22;1.05;;;;;;;;;;5092314;28;20021;-72
2023/08/09 12:40:16;;;;;;;0.93;0.85;;;;;;;;;;5086916;28;20553;-73
2023/08/09 12:42:42;;;;;;;1.85;0.70;;;;;;;;;;5087318;28;20024;-73
2023/08/09 12:45:08;;;;;;;1.65;0.85;;;;;;;;;;5087853;28;20044;-73
2023/08/09 12:47:34;;;;;;;2.92;0.88;;;;;;;;;;5088489;28;20028;-73
2023/08/09 12:50:01;;;;;;;2.67;0.90;;;;;;;;;;5089780;28;20016;-72
2023/08/09 12:52:27;;;;;;;1.73;0.95;;;;;;;;;;5089853;28;20020;-73
2023/08/09 12:54:53;;;;;;;1.92;0.90;;;;;;;;;;5089031;28;20079;-73
2023/08/09 12:57:19;;;;;;;2.33;1.10;;;;;;;;;;5090926;28;20031;-73
2023/08/09 12:59:45;;;;;;;4.38;0.93;;;;;;;;;;5091750;28;20034;-73
2023/08/09 13:02:11;;;;;;;1.88;0.90;;;;;;;;;;5091959;28;20099;-73
2023/08/09 13:04:37;;;;;;;2.58;0.98;;;;;;;;;;5092076;28;20028;-73
2023/08/09 13:07:04;;;;;;;4.72;1.10;;;;;;;;;;5093576;28;20027;-73
2023/08/09 13:09:30;;;;;;;1.88;0.90;;;;;;;;;;5096920;28;20028;-73
2023/08/09 13:12:25;;;;;;;1.60;0.65;;;;;;;;;;5092325;28;20023;-73
2023/08/09 13:14:51;;;;;;;3.42;0.70;;;;;;;;;;5089533;28;20039;-73
2023/08/09 13:17:17;;;;;;;2.80;0.80;;;;;;;;;;5090803;28;20507;-72
2023/08/09 13:19:47;;;;;;;1.75;0.95;;;;;;;;;;5091351;28;20031;-73
2023/08/09 13:22:13;;;;;;;2.83;0.68;;;;;;;;;;5091281;28;20081;-73
2023/08/09 13:24:39;;;;;;;2.80;1.30;;;;;;;;;;5091449;28;20537;-72
2023/08/09 13:27:05;;;;;;;3.30;0.88;;;;;;;;;;5090402;28;20024;-73
2023/08/09 13:29:31;;;;;;;1.10;0.75;;;;;;;;;;5091081;28;20024;-73
2023/08/09 13:31:57;;;;;;;4.57;1.95;;;;;;;;;;5090979;28;20097;-73
2023/08/09 13:34:23;;;;;;;4.07;1.23;;;;;;;;;;5090934;28;20070;-73
2023/08/09 13:36:49;;;;;;;3.70;0.90;;;;;;;;;;5094819;28;20229;-73
2023/08/09 13:39:15;;;;;;;2.03;0.85;;;;;;;;;;5097123;28;20020;-72
2023/08/09 13:41:41;;;;;;;1.98;1.00;;;;;;;;;;5096784;28;20060;-73
2023/08/09 13:44:07;;;;;;;2.33;1.10;;;;;;;;;;5098209;28;20055;-73
2023/08/09 13:46:34;;;;;;;2.42;0.90;;;;;;;;;;5093391;28;20027;-73
2023/08/09 13:49:00;;;;;;;3.92;1.17;;;;;;;;;;5091445;28;20055;-72
2023/08/09 13:51:26;;;;;;;2.45;0.95;;;;;;;;;;5089609;28;20095;-74
2023/08/09 13:53:54;;;;;;;5.38;0.88;;;;;;;;;;5090992;28;20445;-74
2023/08/09 13:56:20;;;;;;;1.92;0.90;;;;;;;;;;5090672;28;20375;-71
2023/08/09 13:58:46;;;;;;;2.90;0.80;;;;;;;;;;5090270;28;20028;-73
2023/08/09 14:01:12;;;;;;;3.65;1.20;;;;;;;;;;5090631;28;20127;-73
2023/08/09 14:03:38;;;;;;;5.20;1.77;;;;;;;;;;5090555;28;20024;-73
2023/08/09 14:06:04;;;;;;;1.58;0.80;;;;;;;;;;5090963;28;20487;-73
2023/08/09 14:08:30;;;;;;;2.88;0.93;;;;;;;;;;5094167;22;20048;-72
2023/08/09 14:10:56;;;;;;;2.28;0.75;;;;;;;;;;5070558;28;20522;-73
2023/08/09 14:13:22;;;;;;;1.45;0.80;;;;;;;;;;5069213;28;20024;-73
2023/08/09 14:15:49;;;;;;;2.95;0.80;;;;;;;;;;5070373;28;20020;-71
2023/08/09 14:18:15;;;;;;;6.28;0.93;;;;;;;;;;5069791;28;20025;-72
2023/08/09 14:20:42;;;;;;;2.45;0.90;;;;;;;;;;5070433;28;20539;-72
2023/08/09 14:23:08;;;;;;;1.58;1.00;;;;;;;;;;5052609;28;20032;-72
2023/08/09 14:25:34;;;;;;;4.32;1.10;;;;;;;;;;5070500;28;20127;-72
2023/08/09 14:28:00;;;;;;;7.03;1.38;;;;;;;;;;5069672;28;20032;-72
2023/08/09 14:30:26;;;;;;;3.95;0.90;;;;;;;;;;5070101;28;20032;-73
2023/08/09 14:32:52;;;;;;;4.03;0.85;;;;;;;;;;5070347;28;20021;-73
2023/08/09 14:35:19;;;;;;;1.17;0.70;;;;;;;;;;5073144;28;20027;-72
2023/08/09 14:37:45;;;;;;;3.70;1.27;;;;;;;;;;5055283;28;20112;-73
2023/08/09 14:40:12;;;;;;;4.13;1.05;;;;;;;;;;5073805;28;20034;-72